sensor_id;sensor_type;location;lat;lon;timestamp;pressure;altitude;pressure_sealevel;temperature;humidity
17072;BME280;7731;50.720;6.912;2022-09-01T00:01:17;100455.81;;;17.94;67.32
17072;BME280;7731;50.720;6.912;2022-09-01T00:03:49;100452.53;;;17.92;67.69
17072;BME280;7731;50.720;6.912;2022-09-01T00:06:22;100445.84;;;17.88;67.38
17072;BME280;7731;50.720;6.912;2022-09-01T00:09:00;100453.38;;;17.80;68.12
17072;BME280;7731;50.720;6.912;2022-09-01T00:11:32;100453.38;;;17.80;68.64
17072;BME280;7731;50.720;6.912;2022-09-01T00:14:04;100451.75;;;17.79;68.70
17072;BME280;7731;50.720;6.912;2022-09-01T00:16:55;100451.81;;;17.66;68.92
17072;BME280;7731;50.720;6.912;2022-09-01T00:19:26;100447.25;;;17.70;68.81
17072;BME280;7731;50.720;6.912;2022-09-01T00:22:00;100458.31;;;17.60;69.73
17072;BME280;7731;50.720;6.912;2022-09-01T00:24:33;100456.41;;;17.62;69.48
17072;BME280;7731;50.720;6.912;2022-09-01T00:27:04;100463.22;;;17.52;69.48
17072;BME280;7731;50.720;6.912;2022-09-01T00:29:36;100457.81;;;17.55;70.20
17072;BME280;7731;50.720;6.912;2022-09-01T00:32:10;100460.84;;;17.49;70.06
17072;BME280;7731;50.720;6.912;2022-09-01T00:34:41;100463.34;;;17.50;70.25
17072;BME280;7731;50.720;6.912;2022-09-01T00:37:11;100455.97;;;17.68;68.85
17072;BME280;7731;50.720;6.912;2022-09-01T00:39:44;100460.53;;;17.89;67.46
17072;BME280;7731;50.720;6.912;2022-09-01T00:42:14;100464.00;;;17.77;68.38
17072;BME280;7731;50.720;6.912;2022-09-01T00:44:44;100459.03;;;17.74;68.77
17072;BME280;7731;50.720;6.912;2022-09-01T00:47:14;100462.84;;;17.70;68.72
17072;BME280;7731;50.720;6.912;2022-09-01T00:49:48;100463.75;;;17.57;69.78
17072;BME280;7731;50.720;6.912;2022-09-01T00:52:27;100460.03;;;17.48;69.95
17072;BME280;7731;50.720;6.912;2022-09-01T00:55:11;100464.88;;;17.42;70.71
17072;BME280;7731;50.720;6.912;2022-09-01T00:57:45;100467.63;;;17.27;71.01
17072;BME280;7731;50.720;6.912;2022-09-01T01:00:20;100464.31;;;17.25;71.09
17072;BME280;7731;50.720;6.912;2022-09-01T01:02:52;100465.53;;;17.33;71.36
17072;BME280;7731;50.720;6.912;2022-09-01T01:05:24;100464.31;;;17.25;71.03
17072;BME280;7731;50.720;6.912;2022-09-01T01:07:56;100460.38;;;17.20;70.72
17072;BME280;7731;50.720;6.912;2022-09-01T01:10:33;100460.94;;;17.12;71.70
17072;BME280;7731;50.720;6.912;2022-09-01T01:13:12;100461.91;;;17.11;71.38
17072;BME280;7731;50.720;6.912;2022-09-01T01:15:43;100463.38;;;17.26;70.63
17072;BME280;7731;50.720;6.912;2022-09-01T01:18:15;100457.00;;;17.30;71.13
17072;BME280;7731;50.720;6.912;2022-09-01T01:20:59;100466.94;;;17.37;70.09
17072;BME280;7731;50.720;6.912;2022-09-01T01:23:51;100464.78;;;17.30;70.91
17072;BME280;7731;50.720;6.912;2022-09-01T01:26:26;100465.53;;;17.33;70.47
17072;BME280;7731;50.720;6.912;2022-09-01T01:28:57;100462.88;;;17.21;71.02
17072;BME280;7731;50.720;6.912;2022-09-01T01:31:29;100468.06;;;17.21;70.91
17072;BME280;7731;50.720;6.912;2022-09-01T01:34:00;100458.34;;;17.12;71.24
17072;BME280;7731;50.720;6.912;2022-09-01T01:36:35;100450.13;;;16.94;71.85
17072;BME280;7731;50.720;6.912;2022-09-01T01:39:11;100461.94;;;16.85;72.22
17072;BME280;7731;50.720;6.912;2022-09-01T01:41:47;100460.28;;;16.84;72.24
17072;BME280;7731;50.720;6.912;2022-09-01T01:44:24;100450.28;;;17.04;71.70
17072;BME280;7731;50.720;6.912;2022-09-01T01:46:56;100451.31;;;17.01;70.99
17072;BME280;7731;50.720;6.912;2022-09-01T01:49:30;100450.94;;;16.94;70.89
17072;BME280;7731;50.720;6.912;2022-09-01T01:52:01;100456.97;;;16.82;71.79
17072;BME280;7731;50.720;6.912;2022-09-01T01:54:34;100458.22;;;16.89;72.18
17072;BME280;7731;50.720;6.912;2022-09-01T01:57:09;100464.88;;;16.68;72.87
17072;BME280;7731;50.720;6.912;2022-09-01T01:59:45;100471.78;;;16.80;71.93
17072;BME280;7731;50.720;6.912;2022-09-01T02:02:15;100466.50;;;16.94;71.18
17072;BME280;7731;50.720;6.912;2022-09-01T02:04:45;100466.50;;;16.94;71.30
17072;BME280;7731;50.720;6.912;2022-09-01T02:07:16;100464.19;;;17.03;71.19
17072;BME280;7731;50.720;6.912;2022-09-01T02:09:46;100467.66;;;16.90;71.58
17072;BME280;7731;50.720;6.912;2022-09-01T02:12:19;100464.84;;;16.93;71.12
17072;BME280;7731;50.720;6.912;2022-09-01T02:14:51;100463.66;;;16.86;72.04
17072;BME280;7731;50.720;6.912;2022-09-01T02:17:26;100464.09;;;16.54;73.43
17072;BME280;7731;50.720;6.912;2022-09-01T02:19:56;100462.97;;;16.20;76.30
17072;BME280;7731;50.720;6.912;2022-09-01T02:22:27;100461.09;;;15.96;79.39
17072;BME280;7731;50.720;6.912;2022-09-01T02:24:59;100466.50;;;15.66;82.12
17072;BME280;7731;50.720;6.912;2022-09-01T02:27:32;100466.50;;;15.53;83.14
17072;BME280;7731;50.720;6.912;2022-09-01T02:30:08;100476.19;;;15.49;84.28
17072;BME280;7731;50.720;6.912;2022-09-01T02:32:39;100462.59;;;15.73;82.05
17072;BME280;7731;50.720;6.912;2022-09-01T02:35:10;100458.72;;;16.06;78.87
17072;BME280;7731;50.720;6.912;2022-09-01T02:37:41;100463.47;;;16.38;76.66
17072;BME280;7731;50.720;6.912;2022-09-01T02:40:17;100459.75;;;16.29;77.20
17072;BME280;7731;50.720;6.912;2022-09-01T02:42:50;100465.56;;;16.33;76.79
17072;BME280;7731;50.720;6.912;2022-09-01T02:45:20;100464.50;;;16.48;75.64
17072;BME280;7731;50.720;6.912;2022-09-01T02:47:50;100463.13;;;16.55;75.71
17072;BME280;7731;50.720;6.912;2022-09-01T02:50:24;100467.94;;;16.49;76.03
17072;BME280;7731;50.720;6.912;2022-09-01T02:52:55;100467.81;;;16.50;75.71
17072;BME280;7731;50.720;6.912;2022-09-01T02:55:30;100461.72;;;16.51;75.74
17072;BME280;7731;50.720;6.912;2022-09-01T02:58:03;100462.22;;;16.56;76.05
17072;BME280;7731;50.720;6.912;2022-09-01T03:00:39;100462.03;;;16.47;76.35
17072;BME280;7731;50.720;6.912;2022-09-01T03:03:10;100457.88;;;16.44;76.24
17072;BME280;7731;50.720;6.912;2022-09-01T03:05:44;100455.28;;;16.18;77.96
17072;BME280;7731;50.720;6.912;2022-09-01T03:08:14;100457.25;;;15.89;80.80
17072;BME280;7731;50.720;6.912;2022-09-01T03:10:46;100454.28;;;15.68;81.78
17072;BME280;7731;50.720;6.912;2022-09-01T03:13:22;100450.09;;;15.52;83.63
17072;BME280;7731;50.720;6.912;2022-09-01T03:15:55;100452.84;;;15.77;82.48
17072;BME280;7731;50.720;6.912;2022-09-01T03:18:25;100454.34;;;15.81;81.42
17072;BME280;7731;50.720;6.912;2022-09-01T03:20:55;100462.69;;;15.71;82.29
17072;BME280;7731;50.720;6.912;2022-09-01T03:23:26;100450.72;;;15.43;84.50
17072;BME280;7731;50.720;6.912;2022-09-01T03:25:57;100457.28;;;14.94;87.24
17072;BME280;7731;50.720;6.912;2022-09-01T03:28:30;100466.25;;;14.60;89.71
17072;BME280;7731;50.720;6.912;2022-09-01T03:31:00;100455.63;;;14.50;91.01
17072;BME280;7731;50.720;6.912;2022-09-01T03:33:31;100464.03;;;14.39;91.41
17072;BME280;7731;50.720;6.912;2022-09-01T03:36:03;100461.06;;;14.31;92.44
17072;BME280;7731;50.720;6.912;2022-09-01T03:38:42;100455.00;;;14.32;92.76
17072;BME280;7731;50.720;6.912;2022-09-01T03:41:18;100452.41;;;14.32;92.81
17072;BME280;7731;50.720;6.912;2022-09-01T03:43:54;100458.66;;;14.28;92.42
17072;BME280;7731;50.720;6.912;2022-09-01T03:46:27;100455.91;;;14.02;93.98
17072;BME280;7731;50.720;6.912;2022-09-01T03:49:04;100455.69;;;13.91;95.19
17072;BME280;7731;50.720;6.912;2022-09-01T03:51:39;100461.91;;;13.72;95.92
17072;BME280;7731;50.720;6.912;2022-09-01T03:54:12;100459.06;;;13.77;96.84
17072;BME280;7731;50.720;6.912;2022-09-01T03:56:44;100460.09;;;13.74;97.03
17072;BME280;7731;50.720;6.912;2022-09-01T03:59:20;100454.50;;;13.66;97.49
17072;BME280;7731;50.720;6.912;2022-09-01T04:01:52;100459.69;;;13.66;97.98
17072;BME280;7731;50.720;6.912;2022-09-01T04:04:24;100453.28;;;13.57;97.57
17072;BME280;7731;50.720;6.912;2022-09-01T04:06:58;100453.25;;;13.27;99.12
17072;BME280;7731;50.720;6.912;2022-09-01T04:09:29;100457.91;;;13.04;100.00
17072;BME280;7731;50.720;6.912;2022-09-01T04:12:04;100466.72;;;13.00;100.00
17072;BME280;7731;50.720;6.912;2022-09-01T04:14:39;100461.72;;;13.29;100.00
17072;BME280;7731;50.720;6.912;2022-09-01T04:17:14;100461.22;;;13.07;100.00
17072;BME280;7731;50.720;6.912;2022-09-01T04:19:56;100463.31;;;13.00;100.00
17072;BME280;7731;50.720;6.912;2022-09-01T04:22:35;100463.91;;;12.89;100.00
17072;BME280;7731;50.720;6.912;2022-09-01T04:25:08;100463.38;;;13.14;100.00
17072;BME280;7731;50.720;6.912;2022-09-01T04:27:40;100453.31;;;13.42;98.94
17072;BME280;7731;50.720;6.912;2022-09-01T04:30:13;100457.44;;;13.60;97.75
17072;BME280;7731;50.720;6.912;2022-09-01T04:32:43;100458.00;;;13.65;98.13
17072;BME280;7731;50.720;6.912;2022-09-01T04:35:13;100457.19;;;13.65;97.39
17072;BME280;7731;50.720;6.912;2022-09-01T04:37:45;100463.03;;;13.52;98.27
17072;BME280;7731;50.720;6.912;2022-09-01T04:40:16;100461.53;;;13.64;97.68
17072;BME280;7731;50.720;6.912;2022-09-01T04:42:53;100461.91;;;13.26;99.77
17072;BME280;7731;50.720;6.912;2022-09-01T04:45:26;100450.91;;;13.38;98.39
17072;BME280;7731;50.720;6.912;2022-09-01T04:47:57;100466.72;;;13.32;99.14
17072;BME280;7731;50.720;6.912;2022-09-01T04:50:29;100466.22;;;13.26;99.93
17072;BME280;7731;50.720;6.912;2022-09-01T04:53:03;100477.31;;;13.12;100.00
17072;BME280;7731;50.720;6.912;2022-09-01T04:55:39;100476.78;;;12.89;100.00
17072;BME280;7731;50.720;6.912;2022-09-01T04:58:13;100477.53;;;12.91;100.00
17072;BME280;7731;50.720;6.912;2022-09-01T05:00:49;100468.97;;;13.07;100.00
17072;BME280;7731;50.720;6.912;2022-09-01T05:03:25;100474.63;;;12.97;100.00
17072;BME280;7731;50.720;6.912;2022-09-01T05:05:58;100465.16;;;13.14;100.00
17072;BME280;7731;50.720;6.912;2022-09-01T05:08:32;100471.56;;;13.22;100.00
17072;BME280;7731;50.720;6.912;2022-09-01T05:11:03;100477.72;;;13.04;100.00
17072;BME280;7731;50.720;6.912;2022-09-01T05:13:36;100472.38;;;13.23;100.00
17072;BME280;7731;50.720;6.912;2022-09-01T05:16:12;100467.97;;;13.25;100.00
17072;BME280;7731;50.720;6.912;2022-09-01T05:18:49;100474.91;;;13.09;100.00
17072;BME280;7731;50.720;6.912;2022-09-01T05:21:23;100474.53;;;13.31;100.00
17072;BME280;7731;50.720;6.912;2022-09-01T05:23:58;100468.47;;;13.16;100.00
17072;BME280;7731;50.720;6.912;2022-09-01T05:26:32;100469.31;;;13.16;100.00
17072;BME280;7731;50.720;6.912;2022-09-01T05:29:09;100467.06;;;13.42;98.08
17072;BME280;7731;50.720;6.912;2022-09-01T05:31:45;100471.38;;;13.42;100.00
17072;BME280;7731;50.720;6.912;2022-09-01T05:34:18;100464.72;;;13.21;99.45
17072;BME280;7731;50.720;6.912;2022-09-01T05:36:57;100468.25;;;13.36;99.30
17072;BME280;7731;50.720;6.912;2022-09-01T05:39:28;100467.84;;;13.74;99.52
17072;BME280;7731;50.720;6.912;2022-09-01T05:41:58;100476.50;;;13.73;98.36
17072;BME280;7731;50.720;6.912;2022-09-01T05:44:34;100480.31;;;13.82;96.78
17072;BME280;7731;50.720;6.912;2022-09-01T05:47:08;100477.88;;;13.49;98.77
17072;BME280;7731;50.720;6.912;2022-09-01T05:49:48;100482.53;;;13.58;98.78
17072;BME280;7731;50.720;6.912;2022-09-01T05:52:20;100481.88;;;13.38;100.00
17072;BME280;7731;50.720;6.912;2022-09-01T05:54:53;100487.00;;;13.70;99.20
17072;BME280;7731;50.720;6.912;2022-09-01T05:57:27;100485.72;;;13.47;99.94
17072;BME280;7731;50.720;6.912;2022-09-01T06:00:07;100492.34;;;13.51;99.80
17072;BME280;7731;50.720;6.912;2022-09-01T06:02:42;100491.53;;;13.51;100.00
17072;BME280;7731;50.720;6.912;2022-09-01T06:05:15;100492.34;;;13.67;99.51
17072;BME280;7731;50.720;6.912;2022-09-01T06:07:46;100491.66;;;13.64;99.37
17072;BME280;7731;50.720;6.912;2022-09-01T06:10:17;100484.41;;;14.01;97.46
17072;BME280;7731;50.720;6.912;2022-09-01T06:12:47;100489.50;;;14.17;95.99
17072;BME280;7731;50.720;6.912;2022-09-01T06:15:20;100485.53;;;14.25;95.71
17072;BME280;7731;50.720;6.912;2022-09-01T06:17:53;100497.63;;;14.25;95.33
17072;BME280;7731;50.720;6.912;2022-09-01T06:20:24;100488.41;;;14.35;95.13
17072;BME280;7731;50.720;6.912;2022-09-01T06:22:56;100484.28;;;14.61;93.91
17072;BME280;7731;50.720;6.912;2022-09-01T06:25:27;100496.88;;;14.37;95.29
17072;BME280;7731;50.720;6.912;2022-09-01T06:27:57;100486.28;;;14.56;94.38
17072;BME280;7731;50.720;6.912;2022-09-01T06:30:31;100487.31;;;14.82;93.67
17072;BME280;7731;50.720;6.912;2022-09-01T06:33:05;100494.06;;;14.85;92.96
17072;BME280;7731;50.720;6.912;2022-09-01T06:35:37;100493.69;;;14.91;92.43
17072;BME280;7731;50.720;6.912;2022-09-01T06:38:10;100492.88;;;15.18;91.56
17072;BME280;7731;50.720;6.912;2022-09-01T06:40:44;100490.50;;;15.42;89.92
17072;BME280;7731;50.720;6.912;2022-09-01T06:43:17;100491.59;;;15.65;88.89
17072;BME280;7731;50.720;6.912;2022-09-01T06:45:50;100491.28;;;15.97;87.44
17072;BME280;7731;50.720;6.912;2022-09-01T06:48:23;100493.47;;;16.03;87.54
17072;BME280;7731;50.720;6.912;2022-09-01T06:50:53;100490.94;;;16.53;85.84
17072;BME280;7731;50.720;6.912;2022-09-01T06:53:47;100489.72;;;17.57;79.28
17072;BME280;7731;50.720;6.912;2022-09-01T06:56:24;100492.63;;;17.04;81.53
17072;BME280;7731;50.720;6.912;2022-09-01T06:59:07;100491.16;;;17.13;81.14
17072;BME280;7731;50.720;6.912;2022-09-01T07:01:41;100499.16;;;17.10;82.55
17072;BME280;7731;50.720;6.912;2022-09-01T07:04:15;100490.31;;;17.96;74.29
17072;BME280;7731;50.720;6.912;2022-09-01T07:06:51;100487.91;;;18.40;72.80
17072;BME280;7731;50.720;6.912;2022-09-01T07:09:41;100484.97;;;18.45;70.74
17072;BME280;7731;50.720;6.912;2022-09-01T07:12:36;100486.22;;;18.73;70.76
17072;BME280;7731;50.720;6.912;2022-09-01T07:15:27;100493.59;;;19.34;67.78
17072;BME280;7731;50.720;6.912;2022-09-01T07:18:21;100494.38;;;19.02;66.91
17072;BME280;7731;50.720;6.912;2022-09-01T07:20:55;100479.63;;;21.99;58.29
17072;BME280;7731;50.720;6.912;2022-09-01T07:23:34;100467.44;;;25.68;45.10
17072;BME280;7731;50.720;6.912;2022-09-01T07:26:27;100470.69;;;25.87;43.82
17072;BME280;7731;50.720;6.912;2022-09-01T07:28:57;100471.47;;;26.12;40.97
17072;BME280;7731;50.720;6.912;2022-09-01T07:31:51;100471.50;;;27.29;38.62
17072;BME280;7731;50.720;6.912;2022-09-01T07:34:42;100466.66;;;28.24;35.38
17072;BME280;7731;50.720;6.912;2022-09-01T07:37:19;100471.41;;;28.28;34.98
17072;BME280;7731;50.720;6.912;2022-09-01T07:40:12;100461.50;;;30.65;31.43
17072;BME280;7731;50.720;6.912;2022-09-01T07:43:14;100463.22;;;31.20;30.11
17072;BME280;7731;50.720;6.912;2022-09-01T07:45:51;100471.91;;;29.55;33.46
17072;BME280;7731;50.720;6.912;2022-09-01T07:48:27;100479.06;;;28.23;34.44
17072;BME280;7731;50.720;6.912;2022-09-01T07:51:21;100474.84;;;28.44;34.80
17072;BME280;7731;50.720;6.912;2022-09-01T07:54:10;100472.69;;;28.32;34.40
17072;BME280;7731;50.720;6.912;2022-09-01T07:56:41;100458.56;;;30.47;30.30
17072;BME280;7731;50.720;6.912;2022-09-01T07:59:11;100475.97;;;28.05;34.21
17072;BME280;7731;50.720;6.912;2022-09-01T08:01:41;100469.78;;;27.97;34.55
17072;BME280;7731;50.720;6.912;2022-09-01T08:04:13;100480.22;;;25.88;39.63
17072;BME280;7731;50.720;6.912;2022-09-01T08:06:49;100471.44;;;26.60;39.58
17072;BME280;7731;50.720;6.912;2022-09-01T08:09:23;100471.78;;;31.28;30.07
17072;BME280;7731;50.720;6.912;2022-09-01T08:12:04;100468.53;;;31.66;28.22
17072;BME280;7731;50.720;6.912;2022-09-01T08:14:35;100471.91;;;29.55;31.65
17072;BME280;7731;50.720;6.912;2022-09-01T08:17:06;100466.13;;;30.01;32.06
17072;BME280;7731;50.720;6.912;2022-09-01T08:19:56;100468.13;;;31.43;29.54
17072;BME280;7731;50.720;6.912;2022-09-01T08:22:29;100463.22;;;31.20;29.67
17072;BME280;7731;50.720;6.912;2022-09-01T08:25:06;100459.91;;;32.88;26.14
17072;BME280;7731;50.720;6.912;2022-09-01T08:27:37;100466.19;;;29.08;32.11
17072;BME280;7731;50.720;6.912;2022-09-01T08:30:11;100469.88;;;29.57;30.94
17072;BME280;7731;50.720;6.912;2022-09-01T08:32:42;100470.72;;;29.86;31.52
17072;BME280;7731;50.720;6.912;2022-09-01T08:35:13;100471.31;;;30.85;30.54
17072;BME280;7731;50.720;6.912;2022-09-01T08:37:43;100465.66;;;31.75;28.37
17072;BME280;7731;50.720;6.912;2022-09-01T08:40:19;100466.88;;;31.45;27.79
17072;BME280;7731;50.720;6.912;2022-09-01T08:43:09;100462.91;;;32.15;27.68
17072;BME280;7731;50.720;6.912;2022-09-01T08:45:49;100468.63;;;32.05;27.49
17072;BME280;7731;50.720;6.912;2022-09-01T08:48:29;100468.63;;;30.16;30.19
17072;BME280;7731;50.720;6.912;2022-09-01T08:51:34;100457.06;;;31.79;28.05
17072;BME280;7731;50.720;6.912;2022-09-01T08:54:19;100460.06;;;32.10;27.57
17072;BME280;7731;50.720;6.912;2022-09-01T08:57:06;100461.88;;;32.22;27.20
17072;BME280;7731;50.720;6.912;2022-09-01T08:59:37;100457.81;;;33.16;26.23
17072;BME280;7731;50.720;6.912;2022-09-01T09:02:24;100465.53;;;32.21;26.88
17072;BME280;7731;50.720;6.912;2022-09-01T09:05:05;100459.34;;;31.69;27.74
17072;BME280;7731;50.720;6.912;2022-09-01T09:08:00;100457.25;;;32.88;26.18
17072;BME280;7731;50.720;6.912;2022-09-01T09:10:50;100453.28;;;32.66;25.83
17072;BME280;7731;50.720;6.912;2022-09-01T09:13:40;100452.25;;;32.67;25.75
17072;BME280;7731;50.720;6.912;2022-09-01T09:16:21;100466.56;;;30.12;30.79
17072;BME280;7731;50.720;6.912;2022-09-01T09:19:00;100447.78;;;33.87;25.03
17072;BME280;7731;50.720;6.912;2022-09-01T09:21:36;100441.16;;;33.71;24.65
17072;BME280;7731;50.720;6.912;2022-09-01T09:24:17;100450.00;;;32.18;27.29
17072;BME280;7731;50.720;6.912;2022-09-01T09:26:50;100450.94;;;31.79;27.28
17072;BME280;7731;50.720;6.912;2022-09-01T09:29:23;100456.03;;;28.17;33.40
17072;BME280;7731;50.720;6.912;2022-09-01T09:32:05;100438.00;;;33.99;24.79
17072;BME280;7731;50.720;6.912;2022-09-01T09:35:17;100431.97;;;30.20;29.24
17072;BME280;7731;50.720;6.912;2022-09-01T09:37:48;100438.41;;;30.52;28.60
17072;BME280;7731;50.720;6.912;2022-09-01T09:40:20;100435.00;;;31.72;26.82
17072;BME280;7731;50.720;6.912;2022-09-01T09:43:05;100420.22;;;34.42;23.58
17072;BME280;7731;50.720;6.912;2022-09-01T09:45:39;100429.25;;;33.29;24.08
17072;BME280;7731;50.720;6.912;2022-09-01T09:48:27;100426.66;;;31.68;27.05
17072;BME280;7731;50.720;6.912;2022-09-01T09:51:18;100425.22;;;31.59;27.94
17072;BME280;7731;50.720;6.912;2022-09-01T09:53:49;100421.19;;;28.80;30.69
17072;BME280;7731;50.720;6.912;2022-09-01T09:56:23;100415.97;;;31.89;26.88
17072;BME280;7731;50.720;6.912;2022-09-01T09:58:55;100413.38;;;32.91;25.85
17072;BME280;7731;50.720;6.912;2022-09-01T10:01:30;100417.94;;;32.13;26.72
17072;BME280;7731;50.720;6.912;2022-09-01T10:04:02;100410.66;;;33.48;24.18
17072;BME280;7731;50.720;6.912;2022-09-01T10:06:36;100412.94;;;31.78;26.50
17072;BME280;7731;50.720;6.912;2022-09-01T10:09:35;100414.13;;;30.00;28.58
17072;BME280;7731;50.720;6.912;2022-09-01T10:12:09;100411.63;;;29.57;29.64
17072;BME280;7731;50.720;6.912;2022-09-01T10:14:45;100396.53;;;32.40;25.98
17072;BME280;7731;50.720;6.912;2022-09-01T10:17:28;100392.66;;;33.43;24.41
17072;BME280;7731;50.720;6.912;2022-09-01T10:20:07;100397.03;;;30.65;27.09
17072;BME280;7731;50.720;6.912;2022-09-01T10:22:40;100402.78;;;31.08;27.71
17072;BME280;7731;50.720;6.912;2022-09-01T10:25:22;100404.91;;;29.89;29.28
17072;BME280;7731;50.720;6.912;2022-09-01T10:28:08;100394.53;;;29.88;29.35
17072;BME280;7731;50.720;6.912;2022-09-01T10:30:48;100408.91;;;31.29;27.52
17072;BME280;7731;50.720;6.912;2022-09-01T10:33:22;100394.59;;;30.90;27.59
17072;BME280;7731;50.720;6.912;2022-09-01T10:35:53;100395.28;;;28.54;31.78
17072;BME280;7731;50.720;6.912;2022-09-01T10:38:28;100400.84;;;28.44;32.63
17072;BME280;7731;50.720;6.912;2022-09-01T10:40:59;100392.34;;;29.98;29.28
17072;BME280;7731;50.720;6.912;2022-09-01T10:43:44;100389.09;;;30.09;28.89
17072;BME280;7731;50.720;6.912;2022-09-01T10:46:42;100379.50;;;30.97;28.03
17072;BME280;7731;50.720;6.912;2022-09-01T10:50:00;100375.88;;;32.99;25.17
17072;BME280;7731;50.720;6.912;2022-09-01T10:52:59;100378.97;;;30.20;28.69
17072;BME280;7731;50.720;6.912;2022-09-01T10:55:40;100375.53;;;29.49;30.09
17072;BME280;7731;50.720;6.912;2022-09-01T10:58:41;100381.06;;;29.54;29.91
17072;BME280;7731;50.720;6.912;2022-09-01T11:02:12;100385.78;;;27.78;32.52
17072;BME280;7731;50.720;6.912;2022-09-01T11:05:20;100382.44;;;27.69;33.00
17072;BME280;7731;50.720;6.912;2022-09-01T11:07:51;100396.19;;;26.88;34.58
17072;BME280;7731;50.720;6.912;2022-09-01T11:10:51;100382.22;;;27.03;34.55
17072;BME280;7731;50.720;6.912;2022-09-01T11:13:38;100387.03;;;26.76;34.84
17072;BME280;7731;50.720;6.912;2022-09-01T11:16:40;100379.00;;;27.99;33.09
17072;BME280;7731;50.720;6.912;2022-09-01T11:19:37;100376.69;;;28.90;31.56
17072;BME280;7731;50.720;6.912;2022-09-01T11:22:31;100369.81;;;29.46;29.69
17072;BME280;7731;50.720;6.912;2022-09-01T11:25:37;100385.06;;;27.16;33.92
17072;BME280;7731;50.720;6.912;2022-09-01T11:28:42;100380.31;;;27.35;33.74
17072;BME280;7731;50.720;6.912;2022-09-01T11:31:23;100376.53;;;27.14;33.80
17072;BME280;7731;50.720;6.912;2022-09-01T11:34:19;100366.03;;;28.04;33.13
17072;BME280;7731;50.720;6.912;2022-09-01T11:36:59;100379.09;;;26.22;35.96
17072;BME280;7731;50.720;6.912;2022-09-01T11:39:50;100374.06;;;25.56;37.26
17072;BME280;7731;50.720;6.912;2022-09-01T11:42:24;100388.53;;;24.77;39.68
17072;BME280;7731;50.720;6.912;2022-09-01T11:45:02;100375.88;;;27.12;35.50
17072;BME280;7731;50.720;6.912;2022-09-01T11:47:40;100381.97;;;26.43;36.16
17072;BME280;7731;50.720;6.912;2022-09-01T11:50:20;100382.13;;;25.94;37.01
17072;BME280;7731;50.720;6.912;2022-09-01T11:52:57;100377.28;;;25.74;37.94
17072;BME280;7731;50.720;6.912;2022-09-01T11:55:37;100374.44;;;26.32;36.64
17072;BME280;7731;50.720;6.912;2022-09-01T11:58:11;100377.28;;;26.53;36.61
17072;BME280;7731;50.720;6.912;2022-09-01T12:00:44;100356.81;;;28.51;32.64
17072;BME280;7731;50.720;6.912;2022-09-01T12:03:21;100360.13;;;27.42;34.01
17072;BME280;7731;50.720;6.912;2022-09-01T12:05:57;100357.22;;;27.96;33.36
17072;BME280;7731;50.720;6.912;2022-09-01T12:08:34;100351.75;;;27.83;33.22
17072;BME280;7731;50.720;6.912;2022-09-01T12:11:12;100354.28;;;27.32;34.40
17072;BME280;7731;50.720;6.912;2022-09-01T12:14:00;100358.59;;;27.24;34.56
17072;BME280;7731;50.720;6.912;2022-09-01T12:16:39;100350.00;;;26.93;35.80
17072;BME280;7731;50.720;6.912;2022-09-01T12:19:24;100337.44;;;27.92;34.17
17072;BME280;7731;50.720;6.912;2022-09-01T12:22:01;100339.00;;;27.72;34.08
17072;BME280;7731;50.720;6.912;2022-09-01T12:24:43;100346.28;;;27.70;34.29
17072;BME280;7731;50.720;6.912;2022-09-01T12:27:16;100337.75;;;27.68;33.81
17072;BME280;7731;50.720;6.912;2022-09-01T12:29:46;100338.56;;;27.00;35.72
17072;BME280;7731;50.720;6.912;2022-09-01T12:32:17;100339.75;;;26.51;36.30
17072;BME280;7731;50.720;6.912;2022-09-01T12:35:00;100339.56;;;26.30;37.17
17072;BME280;7731;50.720;6.912;2022-09-01T12:37:37;100330.47;;;26.01;37.71
17072;BME280;7731;50.720;6.912;2022-09-01T12:40:33;100336.59;;;26.25;37.58
17072;BME280;7731;50.720;6.912;2022-09-01T12:43:06;100331.78;;;26.05;37.65
17072;BME280;7731;50.720;6.912;2022-09-01T12:45:42;100330.22;;;26.19;37.29
17072;BME280;7731;50.720;6.912;2022-09-01T12:48:25;100333.53;;;25.73;37.97
17072;BME280;7731;50.720;6.912;2022-09-01T12:51:02;100325.22;;;26.01;37.68
17072;BME280;7731;50.720;6.912;2022-09-01T12:53:35;100333.31;;;26.54;37.30
17072;BME280;7731;50.720;6.912;2022-09-01T12:56:30;100323.06;;;26.59;35.87
17072;BME280;7731;50.720;6.912;2022-09-01T12:59:12;100318.50;;;26.76;35.77
17072;BME280;7731;50.720;6.912;2022-09-01T13:01:52;100318.88;;;26.73;35.32
17072;BME280;7731;50.720;6.912;2022-09-01T13:04:29;100317.75;;;27.05;33.76
17072;BME280;7731;50.720;6.912;2022-09-01T13:07:06;100312.88;;;27.17;32.29
17072;BME280;7731;50.720;6.912;2022-09-01T13:09:37;100310.16;;;26.87;32.40
17072;BME280;7731;50.720;6.912;2022-09-01T13:12:17;100307.44;;;26.81;33.31
17072;BME280;7731;50.720;6.912;2022-09-01T13:14:53;100291.34;;;27.58;32.50
17072;BME280;7731;50.720;6.912;2022-09-01T13:17:23;100294.69;;;27.67;31.68
17072;BME280;7731;50.720;6.912;2022-09-01T13:19:53;100294.97;;;27.57;31.73
17072;BME280;7731;50.720;6.912;2022-09-01T13:22:24;100288.84;;;27.12;33.11
17072;BME280;7731;50.720;6.912;2022-09-01T13:24:54;100294.38;;;26.41;34.05
17072;BME280;7731;50.720;6.912;2022-09-01T13:27:24;100303.41;;;26.70;35.07
17072;BME280;7731;50.720;6.912;2022-09-01T13:29:57;100296.50;;;25.43;37.19
17072;BME280;7731;50.720;6.912;2022-09-01T13:32:28;100295.19;;;25.23;37.48
17072;BME280;7731;50.720;6.912;2022-09-01T13:34:58;100297.59;;;25.57;37.13
17072;BME280;7731;50.720;6.912;2022-09-01T13:37:29;100289.88;;;26.27;36.31
17072;BME280;7731;50.720;6.912;2022-09-01T13:39:59;100291.19;;;26.23;36.25
17072;BME280;7731;50.720;6.912;2022-09-01T13:42:29;100272.72;;;26.77;35.11
17072;BME280;7731;50.720;6.912;2022-09-01T13:45:03;100281.31;;;25.93;36.43
17072;BME280;7731;50.720;6.912;2022-09-01T13:47:33;100279.97;;;26.29;36.06
17072;BME280;7731;50.720;6.912;2022-09-01T13:50:23;100279.00;;;25.59;36.09
17072;BME280;7731;50.720;6.912;2022-09-01T13:53:14;100274.97;;;26.11;35.20